Time;durP1;ratioP1;P1;durP2;ratioP2;P2;SDS_P1;SDS_P2;PMS_P1;PMS_P2;Temp;Humidity;BMP_temperature;BMP_pressure;BME280_temperature;BME280_humidity;BME280_pressure;Samples;Min_cycle;Max_cycle;Signal;HPM_P1;HPM_P2
2023/06/20 00:02:16;;;;;;;11.52;9.10;;;;;;;19.75;100.00;92808.66;4752469;30;20052;-76
2023/06/20 00:04:42;;;;;;;12.07;9.23;;;;;;;19.74;100.00;92804.44;4750286;30;20484;-75
2023/06/20 00:07:08;;;;;;;11.73;9.18;;;;;;;19.74;100.00;92796.47;4751754;30;20072;-75
2023/06/20 00:09:34;;;;;;;13.63;9.68;;;;;;;19.73;100.00;92784.31;4751508;30;20353;-75
2023/06/20 00:11:59;;;;;;;11.98;9.05;;;;;;;19.71;100.00;92786.53;4751396;30;20150;-75
2023/06/20 00:14:25;;;;;;;12.05;8.85;;;;;;;19.71;100.00;92781.22;4752228;30;20028;-76
2023/06/20 00:16:50;;;;;;;12.13;9.40;;;;;;;19.68;100.00;92776.56;4751271;30;20047;-75
2023/06/20 00:19:16;;;;;;;10.80;9.13;;;;;;;19.67;100.00;92774.22;4750943;30;20142;-75
2023/06/20 00:21:42;;;;;;;9.85;8.32;;;;;;;19.66;100.00;92770.03;4751211;30;20071;-76
2023/06/20 00:24:09;;;;;;;11.00;8.73;;;;;;;19.65;100.00;92777.22;4728909;30;20059;-75
2023/06/20 00:26:37;;;;;;;14.82;8.43;;;;;;;19.64;100.00;92777.56;4750877;30;20044;-76
2023/06/20 00:29:02;;;;;;;10.05;8.55;;;;;;;19.63;100.00;92789.28;4750820;30;20028;-76
2023/06/20 00:31:28;;;;;;;12.25;8.68;;;;;;;19.60;100.00;92780.09;4750995;30;20546;-76
2023/06/20 00:33:55;;;;;;;11.02;8.85;;;;;;;19.59;100.00;92773.25;4756751;30;20032;-75
2023/06/20 00:36:26;;;;;;;9.80;8.23;;;;;;;19.58;100.00;92771.69;4768047;30;20525;-76
2023/06/20 00:38:53;;;;;;;10.60;8.63;;;;;;;19.56;100.00;92777.34;4768562;30;20040;-76
2023/06/20 00:41:21;;;;;;;9.98;8.32;;;;;;;19.58;100.00;92773.59;4767404;30;20086;-76
2023/06/20 00:43:51;;;;;;;11.80;8.18;;;;;;;19.56;100.00;92763.28;4767403;30;20074;-76
2023/06/20 00:46:19;;;;;;;11.27;8.68;;;;;;;19.57;100.00;92770.16;4765487;30;20403;-75
2023/06/20 00:48:47;;;;;;;12.63;7.90;;;;;;;19.58;100.00;92779.66;4768216;30;20050;-76
2023/06/20 00:51:14;;;;;;;10.40;8.38;;;;;;;19.57;100.00;92775.47;4768500;30;20039;-75
2023/06/20 00:53:41;;;;;;;10.90;8.93;;;;;;;19.56;100.00;92761.41;4767547;30;20533;-75
2023/06/20 00:56:13;;;;;;;11.05;8.70;;;;;;;19.55;100.00;92767.06;4768163;30;20114;-75
2023/06/20 00:58:39;;;;;;;12.10;8.90;;;;;;;19.50;100.00;92765.41;4766861;30;20533;-75
2023/06/20 01:01:06;;;;;;;11.98;9.05;;;;;;;19.48;100.00;92761.56;4768846;30;20036;-75
2023/06/20 01:03:33;;;;;;;12.60;8.27;;;;;;;19.46;100.00;92774.38;4768549;30;20171;-75
2023/06/20 01:06:41;;;;;;;13.45;8.38;;;;;;;19.44;100.00;92768.63;4768163;30;20035;-76
2023/06/20 01:09:44;;;;;;;10.35;8.60;;;;;;;19.42;100.00;92773.50;4768125;30;20507;-76
2023/06/20 01:12:29;;;;;;;14.20;9.32;;;;;;;19.39;100.00;92780.25;4742802;30;20067;-76
2023/06/20 01:15:09;;;;;;;12.23;9.52;;;;;;;19.39;100.00;92768.88;4749273;30;20036;-76
2023/06/20 01:17:38;;;;;;;10.63;8.88;;;;;;;19.39;100.00;92760.91;4749058;30;20542;-76
2023/06/20 01:20:16;;;;;;;12.88;9.40;;;;;;;19.39;100.00;92752.94;4749116;30;20048;-76
2023/06/20 01:23:03;;;;;;;13.00;9.43;;;;;;;19.39;100.00;92752.94;4749132;30;20522;-76
2023/06/20 01:25:45;;;;;;;12.63;10.15;;;;;;;19.35;100.00;92758.91;4764043;30;20039;-76
2023/06/20 01:28:21;;;;;;;12.10;9.90;;;;;;;19.35;100.00;92758.91;4766814;30;20566;-76
2023/06/20 01:30:55;;;;;;;11.93;9.43;;;;;;;19.30;100.00;92751.16;4766669;30;20046;-76
2023/06/20 01:33:28;;;;;;;16.02;9.98;;;;;;;19.29;100.00;92754.91;4766957;30;20086;-76
2023/06/20 01:35:58;;;;;;;13.00;10.05;;;;;;;19.25;100.00;92764.69;4766439;30;20063;-76
2023/06/20 01:38:28;;;;;;;11.30;9.55;;;;;;;19.25;100.00;92763.88;4752467;30;20127;-76
2023/06/20 01:40:55;;;;;;;11.25;9.43;;;;;;;19.22;100.00;92760.00;4753719;30;20048;-76
2023/06/20 01:43:22;;;;;;;12.48;9.10;;;;;;;19.22;100.00;92762.66;4753829;30;20484;-76
2023/06/20 01:45:50;;;;;;;11.77;9.68;;;;;;;19.18;100.00;92763.66;4752476;30;20508;-76
2023/06/20 01:48:18;;;;;;;15.25;10.45;;;;;;;19.17;100.00;92756.81;4753694;30;20034;-75
2023/06/20 01:50:46;;;;;;;19.17;10.18;;;;;;;19.14;100.00;92761.69;4738791;30;20032;-76
2023/06/20 01:53:12;;;;;;;13.10;10.23;;;;;;;19.15;100.00;92767.75;4737567;30;20036;-76
2023/06/20 01:55:41;;;;;;;13.15;10.35;;;;;;;19.13;100.00;92754.06;4753687;30;20076;-76
2023/06/20 01:58:07;;;;;;;14.05;11.15;;;;;;;19.12;100.00;92755.16;4737743;30;20074;-76
2023/06/20 02:00:34;;;;;;;13.80;11.13;;;;;;;19.14;100.00;92760.91;4752267;30;20090;-76
2023/06/20 02:03:01;;;;;;;13.95;10.90;;;;;;;19.11;100.00;92754.38;4754397;30;20043;-76
2023/06/20 02:05:31;;;;;;;23.40;11.60;;;;;;;19.09;100.00;92755.81;4752308;30;20063;-76
2023/06/20 02:07:59;;;;;;;15.18;11.07;;;;;;;19.09;100.00;92755.81;4752180;30;20032;-76
2023/06/20 02:10:26;;;;;;;13.63;10.82;;;;;;;19.08;100.00;92756.94;4751756;30;20028;-76
2023/06/20 02:12:54;;;;;;;14.20;10.25;;;;;;;19.07;100.00;92761.47;4753485;30;20404;-76
2023/06/20 02:15:23;;;;;;;15.07;10.70;;;;;;;19.07;100.00;92758.81;4752655;30;20557;-76
2023/06/20 02:17:49;;;;;;;15.07;10.35;;;;;;;19.07;100.00;92760.69;4751848;30;20088;-76
2023/06/20 02:20:15;;;;;;;12.07;9.77;;;;;;;19.08;100.00;92759.59;4752047;30;20542;-76
2023/06/20 02:22:44;;;;;;;14.98;10.98;;;;;;;19.08;100.00;92764.91;4752025;30;20079;-76
2023/06/20 02:25:21;;;;;;;12.40;10.13;;;;;;;19.08;100.00;92759.59;4751998;30;20395;-75
2023/06/20 02:27:51;;;;;;;15.25;10.65;;;;;;;19.09;100.00;92771.72;4752010;30;20040;-76
2023/06/20 02:30:19;;;;;;;14.30;10.40;;;;;;;19.09;100.00;92780.50;4751635;30;20024;-76
2023/06/20 02:32:45;;;;;;;13.18;10.68;;;;;;;19.07;100.00;92781.91;4751630;30;20052;-76
2023/06/20 02:35:13;;;;;;;14.57;10.95;;;;;;;19.04;100.00;92775.38;4765796;30;20039;-76
2023/06/20 02:37:41;;;;;;;13.77;10.77;;;;;;;19.04;100.00;92780.69;4770644;30;20047;-76
2023/06/20 02:40:08;;;;;;;15.60;10.80;;;;;;;19.03;100.00;92784.47;4770357;30;20088;-76
2023/06/20 02:42:34;;;;;;;12.48;10.40;;;;;;;19.01;100.00;92773.41;4770447;30;20055;-76
2023/06/20 02:45:00;;;;;;;12.95;10.38;;;;;;;19.02;100.00;92782.91;4769247;30;20036;-76
2023/06/20 02:47:56;;;;;;;13.15;9.98;;;;;;;19.03;100.00;92778.38;4767676;30;20039;-76
2023/06/20 02:50:32;;;;;;;12.13;10.40;;;;;;;19.03;100.00;92783.69;4770162;30;20043;-76
2023/06/20 02:53:07;;;;;;;20.85;11.73;;;;;;;19.03;100.00;92781.03;4769997;30;20082;-75
2023/06/20 02:55:44;;;;;;;12.52;10.85;;;;;;;19.04;100.00;92787.88;4770220;30;20043;-76
2023/06/20 02:58:16;;;;;;;13.55;10.05;;;;;;;19.02;100.00;92782.13;4770011;30;20491;-76
2023/06/20 03:00:45;;;;;;;15.85;10.90;;;;;;;19.02;100.00;92787.44;4767186;30;20066;-76
2023/06/20 03:03:24;;;;;;;13.98;10.68;;;;;;;19.00;100.00;92790.41;4768644;30;20039;-76
2023/06/20 03:05:56;;;;;;;11.93;10.45;;;;;;;19.00;100.00;92787.00;4768623;30;20044;-76
2023/06/20 03:08:24;;;;;;;14.40;10.18;;;;;;;18.99;100.00;92794.19;4768950;30;20127;-76
2023/06/20 03:10:51;;;;;;;16.63;10.98;;;;;;;18.99;100.00;92793.41;4764200;30;20084;-76
2023/06/20 03:13:17;;;;;;;17.85;12.55;;;;;;;18.96;100.00;92794.84;4750828;30;20555;-76
2023/06/20 03:15:49;;;;;;;16.58;12.38;;;;;;;18.95;100.00;92792.53;4736442;30;20043;-76
2023/06/20 03:18:20;;;;;;;16.67;12.40;;;;;;;18.95;100.00;92797.81;4750379;30;20063;-76
2023/06/20 03:20:48;;;;;;;17.17;13.07;;;;;;;18.92;100.00;92802.69;4750931;30;20045;-75
2023/06/20 03:23:15;;;;;;;16.10;12.60;;;;;;;18.91;100.00;92795.84;4768193;30;20039;-76
2023/06/20 03:25:41;;;;;;;15.88;12.45;;;;;;;18.90;100.00;92796.94;4768163;30;20096;-76
2023/06/20 03:28:07;;;;;;;17.42;10.55;;;;;;;18.87;100.00;92802.91;4749750;30;20266;-76
2023/06/20 03:30:33;;;;;;;17.42;10.60;;;;;;;18.84;100.00;92798.25;4750414;30;20044;-76
2023/06/20 03:32:59;;;;;;;12.60;10.48;;;;;;;18.84;100.00;92806.19;4750880;30;20048;-75
2023/06/20 03:35:25;;;;;;;15.10;10.88;;;;;;;18.81;100.00;92792.84;4750209;30;20407;-76
2023/06/20 03:37:50;;;;;;;14.13;9.90;;;;;;;18.78;100.00;92793.47;4750298;30;20032;-76
2023/06/20 03:40:17;;;;;;;16.92;10.82;;;;;;;18.75;100.00;92800.19;4750077;30;20052;-76
2023/06/20 03:42:45;;;;;;;12.52;10.77;;;;;;;18.72;100.00;92806.16;4750163;30;20032;-76
2023/06/20 03:45:11;;;;;;;15.15;10.43;;;;;;;18.71;100.00;92799.28;4750176;30;20521;-76
2023/06/20 03:47:39;;;;;;;14.30;10.30;;;;;;;18.70;100.00;92808.38;4750087;30;20040;-76
2023/06/20 03:50:04;;;;;;;12.23;10.48;;;;;;;18.68;100.00;92806.03;4750168;30;20038;-75
2023/06/20 03:52:30;;;;;;;15.07;11.40;;;;;;;18.69;100.00;92817.44;4750085;30;20032;-76
2023/06/20 03:54:56;;;;;;;14.68;10.68;;;;;;;18.68;100.00;92824.59;4750621;30;20105;-75
2023/06/20 03:57:21;;;;;;;16.42;10.70;;;;;;;18.68;100.00;92827.25;4735751;30;20355;-75
2023/06/20 03:59:47;;;;;;;15.38;10.68;;;;;;;18.71;100.00;92826.59;4749075;30;20052;-75
2023/06/20 04:02:13;;;;;;;19.10;10.95;;;;;;;18.71;100.00;92825.81;4767427;30;20036;-75
2023/06/20 04:04:39;;;;;;;14.55;10.68;;;;;;;18.73;100.00;92823.59;4767380;30;20051;-75
2023/06/20 04:07:08;;;;;;;15.02;10.95;;;;;;;18.75;100.00;92825.94;4767582;30;20112;-75
2023/06/20 04:09:36;;;;;;;13.00;10.85;;;;;;;18.77;100.00;92824.53;4767529;30;20097;-75
2023/06/20 04:12:01;;;;;;;12.75;10.45;;;;;;;18.80;100.00;92826.53;4767315;30;20039;-75
2023/06/20 04:14:28;;;;;;;14.93;9.75;;;;;;;18.84;100.00;92822.09;4767164;30;20408;-75
2023/06/20 04:16:54;;;;;;;13.45;10.52;;;;;;;18.88;100.00;92830.19;4767500;30;20032;-75
2023/06/20 04:19:19;;;;;;;13.57;9.88;;;;;;;18.89;100.00;92829.88;4766964;30;20052;-75
2023/06/20 04:21:45;;;;;;;16.02;10.90;;;;;;;18.92;100.00;92837.16;4767243;30;20070;-75
2023/06/20 04:24:11;;;;;;;16.38;10.90;;;;;;;18.95;100.00;92829.66;4741844;30;20052;-75
2023/06/20 04:26:37;;;;;;;14.82;10.25;;;;;;;19.00;100.00;92840.81;4749598;30;20081;-75
2023/06/20 04:29:02;;;;;;;17.67;10.25;;;;;;;19.04;100.00;92835.63;4749285;30;20527;-75
2023/06/20 04:31:31;;;;;;;19.52;11.00;;;;;;;19.07;100.00;92829.66;4735357;30;20040;-75
2023/06/20 04:33:58;;;;;;;12.30;9.43;;;;;;;19.15;100.00;92839.41;4749652;30;20052;-75
2023/06/20 04:36:26;;;;;;;12.45;9.48;;;;;;;19.21;100.00;92838.09;4750114;30;20040;-76
2023/06/20 04:38:53;;;;;;;12.68;9.77;;;;;;;19.31;100.00;92837.63;4746113;30;20127;-75
2023/06/20 04:41:19;;;;;;;17.42;9.70;;;;;;;19.37;100.00;92830.25;4749517;30;20032;-75
2023/06/20 04:43:46;;;;;;;16.98;9.40;;;;;;;19.48;100.00;92836.66;4734883;30;20500;-76
2023/06/20 04:46:15;;;;;;;14.30;9.40;;;;;;;19.56;100.00;92832.31;4749209;30;20036;-76
2023/06/20 04:48:41;;;;;;;16.40;10.07;;;;;;;19.63;100.00;92824.56;4766791;30;20044;-76
2023/06/20 04:51:09;;;;;;;12.98;9.80;;;;;;;19.74;100.00;92833.66;4751688;30;20092;-76
2023/06/20 04:53:35;;;;;;;16.27;9.45;;;;;;;19.82;100.00;92834.66;4766676;30;20039;-76
2023/06/20 04:56:01;;;;;;;13.48;9.65;;;;;;;19.93;100.00;92840.28;4766613;30;20143;-75
2023/06/20 04:58:28;;;;;;;12.45;9.25;;;;;;;20.05;100.00;92842.91;4735656;30;20146;-75
2023/06/20 05:00:57;;;;;;;12.18;9.50;;;;;;;20.19;100.00;92847.84;4749943;30;20047;-75
2023/06/20 05:03:23;;;;;;;14.07;10.20;;;;;;;20.32;100.00;92843.28;4750113;30;20048;-75
2023/06/20 05:05:50;;;;;;;13.32;9.70;;;;;;;20.42;100.00;92845.44;4748879;30;20044;-75
2023/06/20 05:08:17;;;;;;;13.70;9.13;;;;;;;20.52;100.00;92834.31;4759660;30;20039;-76
2023/06/20 05:10:43;;;;;;;12.98;9.18;;;;;;;20.68;100.00;92833.63;4766584;30;20577;-75
2023/06/20 05:13:09;;;;;;;15.18;9.85;;;;;;;20.70;100.00;92839.38;4751203;30;20070;-76
2023/06/20 05:15:34;;;;;;;14.07;9.57;;;;;;;20.75;100.00;92839.13;4766210;30;20048;-75
2023/06/20 05:18:00;;;;;;;14.35;10.02;;;;;;;20.84;100.00;92847.72;4766168;30;20056;-75
2023/06/20 05:20:26;;;;;;;14.50;10.13;;;;;;;20.88;100.00;92845.94;4766555;30;20052;-75
2023/06/20 05:22:51;;;;;;;15.02;10.02;;;;;;;20.89;100.00;92857.34;4766458;30;20491;-76
2023/06/20 05:25:17;;;;;;;13.10;8.88;;;;;;;20.91;100.00;92855.09;4761805;30;20024;-76
2023/06/20 05:27:43;;;;;;;12.18;9.48;;;;;;;20.94;100.00;92854.41;4750351;30;20052;-76
2023/06/20 05:30:08;;;;;;;11.77;9.00;;;;;;;20.97;100.00;92849.19;4751172;30;20040;-76
2023/06/20 05:32:34;;;;;;;10.40;7.63;;;;;;;20.98;100.00;92861.41;4766113;30;20109;-75
2023/06/20 05:35:00;;;;;;;10.77;8.40;;;;;;;21.00;100.00;92869.03;4766214;30;20142;-76
2023/06/20 05:37:28;;;;;;;10.95;7.95;;;;;;;21.02;100.00;92866.03;4766764;30;20051;-75
2023/06/20 05:39:54;;;;;;;10.15;7.80;;;;;;;21.05;100.00;92868.75;4765758;30;20415;-75
2023/06/20 05:42:20;;;;;;;10.65;7.85;;;;;;;21.11;100.00;92863.97;4767368;30;20135;-75
2023/06/20 05:44:46;;;;;;;13.13;8.27;;;;;;;21.18;100.00;92872.13;4765899;30;20145;-75
2023/06/20 05:47:17;;;;;;;12.35;8.30;;;;;;;21.32;100.00;92871.72;4767441;30;20145;-76
2023/06/20 05:49:47;;;;;;;13.07;9.02;;;;;;;21.44;100.00;92877.00;4761876;30;20046;-75
2023/06/20 05:52:13;;;;;;;11.13;8.35;;;;;;;21.59;100.00;92867.44;4749618;30;20048;-75
2023/06/20 05:54:41;;;;;;;11.82;8.43;;;;;;;21.79;100.00;92871.69;4749894;30;20557;-76
2023/06/20 05:57:07;;;;;;;13.75;9.02;;;;;;;22.06;100.00;92874.56;4749544;30;20044;-76
2023/06/20 05:59:33;;;;;;;12.73;9.18;;;;;;;22.27;100.00;92868.16;4749834;30;20043;-75
2023/06/20 06:01:58;;;;;;;15.68;9.27;;;;;;;22.54;100.00;92866.44;4750546;30;20036;-76
2023/06/20 06:04:25;;;;;;;15.70;10.32;;;;;;;22.89;100.00;92874.34;4748221;30;20040;-76
2023/06/20 06:06:51;;;;;;;17.05;11.27;;;;;;;23.21;100.00;92872.25;4749613;30;20209;-76
2023/06/20 06:09:17;;;;;;;14.32;11.05;;;;;;;23.45;100.00;92871.13;4748652;30;20118;-76
2023/06/20 06:11:42;;;;;;;14.35;11.18;;;;;;;23.75;100.00;92875.06;4761259;30;20046;-76
2023/06/20 06:14:08;;;;;;;12.38;10.43;;;;;;;23.62;100.00;92874.44;4767365;30;20117;-76
2023/06/20 06:16:35;;;;;;;13.68;9.93;;;;;;;24.01;100.00;92874.31;4766166;30;20062;-76
2023/06/20 06:19:00;;;;;;;13.77;9.25;;;;;;;24.57;100.00;92878.88;4763268;30;20064;-76
2023/06/20 06:21:26;;;;;;;12.10;9.38;;;;;;;24.88;100.00;92884.94;4747549;30;20176;-76
2023/06/20 06:23:53;;;;;;;17.90;12.07;;;;;;;24.80;100.00;92897.50;4757677;30;20051;-76
2023/06/20 06:26:18;;;;;;;17.10;13.27;;;;;;;24.21;100.00;92891.78;4768841;30;20074;-75
2023/06/20 06:28:44;;;;;;;16.65;13.85;;;;;;;23.39;100.00;92891.25;4770472;30;20039;-76
2023/06/20 06:31:13;;;;;;;21.55;14.90;;;;;;;23.15;100.00;92888.97;4769089;30;20058;-76
2023/06/20 06:33:41;;;;;;;26.10;16.10;;;;;;;22.79;100.00;92896.28;4770576;30;20057;-76
2023/06/20 06:36:08;;;;;;;21.65;16.63;;;;;;;22.37;100.00;92899.63;4770170;30;20491;-76
2023/06/20 06:38:34;;;;;;;22.52;15.60;;;;;;;22.22;100.00;92904.69;4770152;30;20035;-75
2023/06/20 06:40:59;;;;;;;23.45;16.88;;;;;;;22.12;100.00;92904.41;4764542;30;20048;-75
2023/06/20 06:43:25;;;;;;;22.50;16.20;;;;;;;22.25;100.00;92903.19;4752145;30;20553;-76
2023/06/20 06:45:52;;;;;;;19.30;15.70;;;;;;;22.29;100.00;92898.72;4750882;30;20052;-76
2023/06/20 06:48:18;;;;;;;19.95;15.23;;;;;;;22.48;100.00;92899.84;4736245;30;20032;-76
2023/06/20 06:50:44;;;;;;;23.33;15.93;;;;;;;22.62;100.00;92900.13;4752205;30;20051;-76
2023/06/20 06:53:11;;;;;;;19.83;15.27;;;;;;;22.70;100.00;92901.03;4750987;30;20097;-76
2023/06/20 06:55:37;;;;;;;15.70;12.23;;;;;;;22.90;100.00;92897.25;4752197;30;20036;-75
2023/06/20 06:58:02;;;;;;;15.15;12.32;;;;;;;23.16;100.00;92906.50;4750573;30;20036;-75
2023/06/20 07:00:29;;;;;;;23.58;15.68;;;;;;;23.03;100.00;92903.22;4752050;30;20480;-76
2023/06/20 07:02:54;;;;;;;22.92;15.95;;;;;;;22.84;100.00;92898.66;4752438;30;20036;-75
2023/06/20 07:05:20;;;;;;;19.25;15.63;;;;;;;22.78;100.00;92905.41;4752525;30;20055;-76
2023/06/20 07:07:45;;;;;;;16.42;12.95;;;;;;;23.02;100.00;92905.13;4750860;30;20500;-76
2023/06/20 07:10:11;;;;;;;16.77;12.68;;;;;;;22.94;100.00;92911.41;4750660;30;20032;-75
2023/06/20 07:12:36;;;;;;;18.02;12.60;;;;;;;22.96;100.00;92911.06;4752969;30;20089;-75
2023/06/20 07:15:02;;;;;;;19.65;14.75;;;;;;;23.02;100.00;92907.03;4752020;30;20124;-75
2023/06/20 07:17:28;;;;;;;17.75;13.75;;;;;;;23.23;100.00;92902.06;4751727;30;20095;-75
2023/06/20 07:19:53;;;;;;;22.05;16.23;;;;;;;23.03;100.00;92903.22;4751539;30;20095;-76
2023/06/20 07:22:20;;;;;;;21.63;16.65;;;;;;;22.96;100.00;92903.84;4735939;30;20147;-76
2023/06/20 07:24:46;;;;;;;22.92;15.77;;;;;;;22.89;100.00;92903.69;4750553;30;20146;-76
2023/06/20 07:27:12;;;;;;;18.27;14.90;;;;;;;22.70;100.00;92899.16;4754216;30;20415;-76
2023/06/20 07:29:40;;;;;;;26.02;16.00;;;;;;;22.99;100.00;92903.19;4769514;30;20056;-76
2023/06/20 07:32:06;;;;;;;19.55;14.52;;;;;;;23.19;100.00;92911.13;4769615;30;20127;-75
2023/06/20 07:34:31;;;;;;;21.20;14.88;;;;;;;23.47;100.00;92906.28;4769157;30;20547;-76
2023/06/20 07:36:57;;;;;;;19.67;15.23;;;;;;;23.66;100.00;92904.66;4752918;30;20046;-75
2023/06/20 07:39:22;;;;;;;26.90;15.25;;;;;;;23.77;100.00;92908.31;4767843;30;20040;-75
2023/06/20 07:41:48;;;;;;;25.90;15.40;;;;;;;23.58;100.00;92900.38;4767887;30;20059;-75
2023/06/20 07:44:13;;;;;;;21.65;15.13;;;;;;;23.74;100.00;92911.69;4767519;30;20128;-76
2023/06/20 07:46:39;;;;;;;24.73;15.75;;;;;;;23.81;100.00;92903.81;4769358;30;20039;-76
2023/06/20 07:49:06;;;;;;;23.33;17.50;;;;;;;23.80;100.00;92912.97;4769270;30;20036;-76
2023/06/20 07:51:33;;;;;;;24.40;17.98;;;;;;;23.67;100.00;92903.56;4769235;30;20403;-75
2023/06/20 07:53:59;;;;;;;23.90;17.42;;;;;;;23.90;100.00;92912.34;4769601;30;20511;-75
2023/06/20 07:56:25;;;;;;;25.92;18.92;;;;;;;23.81;100.00;92911.06;4768856;30;20122;-75
2023/06/20 07:58:51;;;;;;;20.48;15.23;;;;;;;23.80;100.00;92907.63;4736874;30;20134;-75
2023/06/20 08:01:17;;;;;;;17.33;11.07;;;;;;;23.94;100.00;92909.72;4754965;30;20040;-75
2023/06/20 08:03:43;;;;;;;26.10;16.45;;;;;;;23.94;100.00;92912.41;4751255;30;20047;-75
2023/06/20 08:06:12;;;;;;;14.07;10.80;;;;;;;24.10;100.00;92917.59;4751384;30;20407;-76
2023/06/20 08:08:38;;;;;;;22.63;15.50;;;;;;;24.33;100.00;92919.44;4751651;30;20094;-76
2023/06/20 08:11:04;;;;;;;27.05;17.80;;;;;;;24.37;100.00;92917.59;4751188;30;20036;-76
2023/06/20 08:13:30;;;;;;;21.40;15.63;;;;;;;24.12;100.00;92922.59;4751293;30;20428;-76
2023/06/20 08:15:56;;;;;;;23.67;17.15;;;;;;;24.08;100.00;92922.53;4751208;30;20051;-76
2023/06/20 08:18:22;;;;;;;22.83;15.77;;;;;;;24.05;100.00;92920.59;4767674;30;20048;-76
2023/06/20 08:20:48;;;;;;;21.95;14.30;;;;;;;24.13;100.00;92927.56;4768544;30;20446;-77
2023/06/20 08:23:14;;;;;;;25.30;17.38;;;;;;;24.10;100.00;92920.28;4771461;30;20172;-77
2023/06/20 08:25:40;;;;;;;21.33;13.95;;;;;;;24.04;100.00;92927.06;4754736;30;20040;-77
2023/06/20 08:28:05;;;;;;;18.77;12.30;;;;;;;23.88;100.00;92929.88;4768034;30;20418;-76
2023/06/20 08:30:31;;;;;;;20.30;12.00;;;;;;;23.86;100.00;92926.78;4767188;30;20409;-77
2023/06/20 08:32:56;;;;;;;16.15;11.23;;;;;;;24.10;100.00;92923.72;4768011;30;20036;-77
2023/06/20 08:35:22;;;;;;;14.35;9.95;;;;;;;24.54;100.00;92930.44;4767253;30;20063;-76
2023/06/20 08:37:48;;;;;;;13.60;10.27;;;;;;;24.42;86.53;92930.66;4752624;30;20047;-77
2023/06/20 08:40:14;;;;;;;17.73;9.55;;;;;;;24.72;91.80;92925.31;4767242;30;20387;-77
2023/06/20 08:42:43;;;;;;;22.40;13.27;;;;;;;24.25;100.00;92919.34;4767764;30;20100;-76
2023/06/20 08:45:10;;;;;;;14.85;10.18;;;;;;;24.55;94.14;92923.97;4766020;30;20039;-77
2023/06/20 08:47:35;;;;;;;15.65;8.55;;;;;;;24.45;80.54;92927.22;4749160;30;20063;-76
2023/06/20 08:50:01;;;;;;;13.07;8.75;;;;;;;24.65;75.58;92920.63;4750544;30;20036;-77
2023/06/20 08:52:30;;;;;;;13.20;7.97;;;;;;;24.87;64.18;92923.59;4750756;30;20059;-76
2023/06/20 08:54:58;;;;;;;15.52;11.52;;;;;;;24.56;82.91;92925.50;4749566;30;20046;-76
2023/06/20 08:57:24;;;;;;;12.90;8.55;;;;;;;24.82;71.72;92931.94;4750677;30;20051;-77
2023/06/20 08:59:50;;;;;;;11.48;7.38;;;;;;;25.00;65.99;92932.91;4751353;30;20499;-77
2023/06/20 09:02:16;;;;;;;12.55;7.13;;;;;;;25.31;67.38;92933.66;4750930;30;20292;-77
2023/06/20 09:04:42;;;;;;;11.45;6.95;;;;;;;25.40;61.34;92936.03;4750737;30;20059;-77
2023/06/20 09:07:18;;;;;;;11.57;7.32;;;;;;;24.73;63.62;92937.56;4750567;30;20048;-77
2023/06/20 09:09:44;;;;;;;12.30;7.88;;;;;;;24.94;65.67;92940.50;4751520;30;20109;-76
2023/06/20 09:12:10;;;;;;;12.52;7.45;;;;;;;24.52;62.36;92940.75;4750432;30;20051;-77
2023/06/20 09:14:36;;;;;;;11.35;6.72;;;;;;;24.64;64.61;92923.69;4749040;30;20412;-76
2023/06/20 09:17:03;;;;;;;12.88;7.53;;;;;;;24.87;64.82;92929.72;4749153;30;20055;-76
2023/06/20 09:19:42;;;;;;;13.52;7.38;;;;;;;24.98;59.92;92935.19;4749171;30;20058;-76
2023/06/20 09:22:07;;;;;;;9.85;7.32;;;;;;;25.27;64.74;92930.94;4749105;30;20043;-76
2023/06/20 09:24:42;;;;;;;12.73;7.43;;;;;;;25.48;61.39;92924.25;4749366;30;20683;-76
2023/06/20 09:27:08;;;;;;;10.98;7.10;;;;;;;24.98;57.87;92923.72;4777225;30;20032;-76
2023/06/20 09:29:33;;;;;;;10.70;7.38;;;;;;;24.78;59.46;92920.41;4749264;30;20101;-76
2023/06/20 09:31:59;;;;;;;11.50;7.07;;;;;;;24.92;62.87;92910.63;4750463;30;20044;-76
2023/06/20 09:34:24;;;;;;;11.98;7.00;;;;;;;25.18;56.64;92919.72;4748618;30;20650;-76
2023/06/20 09:36:50;;;;;;;10.93;6.90;;;;;;;25.31;57.58;92920.28;4750669;30;20044;-76
2023/06/20 09:39:20;;;;;;;10.20;6.90;;;;;;;25.52;56.12;92915.09;4750273;30;20043;-77
2023/06/20 09:41:47;;;;;;;11.38;6.53;;;;;;;25.46;59.14;92911.22;4751061;30;20133;-77
2023/06/20 09:44:14;;;;;;;11.38;7.03;;;;;;;25.47;57.46;92918.13;4750037;30;20085;-76
2023/06/20 09:46:40;;;;;;;12.25;7.20;;;;;;;25.47;59.56;92918.13;4750801;30;20292;-76
2023/06/20 09:49:06;;;;;;;10.50;7.03;;;;;;;25.74;57.71;92926.00;4749138;30;20066;-76
2023/06/20 09:51:34;;;;;;;10.68;6.82;;;;;;;25.64;56.00;92929.38;4750385;30;20093;-77
2023/06/20 09:54:05;;;;;;;9.10;6.57;;;;;;;25.80;54.78;92927.19;4750349;30;20036;-77
2023/06/20 09:56:57;;;;;;;11.68;6.57;;;;;;;26.05;56.02;92930.13;4751483;30;20123;-77
2023/06/20 09:59:26;;;;;;;11.90;6.15;;;;;;;25.98;54.44;92929.28;4752134;30;20071;-77
2023/06/20 10:01:54;;;;;;;11.07;6.75;;;;;;;26.23;54.95;92926.75;4753985;30;20107;-77
2023/06/20 10:04:22;;;;;;;9.82;6.70;;;;;;;26.30;51.20;92924.91;4753721;30;20119;-76
2023/06/20 10:06:48;;;;;;;12.18;6.47;;;;;;;26.29;54.54;92915.31;4753833;30;20044;-77
2023/06/20 10:09:15;;;;;;;9.80;6.63;;;;;;;26.40;54.70;92926.09;4753849;30;20094;-77
2023/06/20 10:11:42;;;;;;;10.48;7.10;;;;;;;26.31;53.30;92918.38;4753852;30;20349;-77
2023/06/20 10:14:09;;;;;;;9.20;6.30;;;;;;;26.29;54.22;92915.31;4769649;30;20402;-76
2023/06/20 10:16:35;;;;;;;12.07;7.60;;;;;;;26.27;53.85;92914.16;4769944;30;20465;-77
2023/06/20 10:19:18;;;;;;;10.85;6.40;;;;;;;26.09;54.13;92905.97;4770904;30;20060;-76
2023/06/20 10:22:00;;;;;;;10.20;7.32;;;;;;;26.19;54.29;92905.28;4771245;30;20048;-77
2023/06/20 10:24:30;;;;;;;13.05;6.70;;;;;;;26.33;52.30;92908.06;4758834;30;20518;-77
2023/06/20 10:27:00;;;;;;;9.73;6.63;;;;;;;26.43;52.97;92905.81;4752180;30;20048;-77
2023/06/20 10:29:26;;;;;;;12.43;6.68;;;;;;;26.42;51.96;92904.28;4755568;30;20031;-77
2023/06/20 10:32:06;;;;;;;11.80;7.15;;;;;;;26.35;54.68;92908.44;4738943;30;20116;-77
2023/06/20 10:34:31;;;;;;;11.07;7.18;;;;;;;26.59;57.22;92906.28;4755651;30;20044;-77
2023/06/20 10:37:18;;;;;;;10.27;7.13;;;;;;;26.68;53.85;92906.75;4755359;30;20101;-78
2023/06/20 10:39:52;;;;;;;10.43;7.38;;;;;;;26.73;55.81;92894.88;4755343;30;20480;-78
2023/06/20 10:42:39;;;;;;;13.80;7.90;;;;;;;26.66;53.36;92903.66;4752974;30;20048;-78
2023/06/20 10:45:19;;;;;;;12.30;7.30;;;;;;;26.77;55.53;92901.00;4753047;30;20036;-78
2023/06/20 10:47:45;;;;;;;11.55;7.20;;;;;;;26.88;54.34;92899.13;4753909;30;20044;-78
2023/06/20 10:50:13;;;;;;;10.82;7.32;;;;;;;26.88;54.50;92903.72;4754955;30;20044;-78
2023/06/20 10:52:39;;;;;;;12.85;6.95;;;;;;;26.70;55.52;92904.41;4752239;30;20466;-77
2023/06/20 10:55:26;;;;;;;9.77;6.85;;;;;;;26.57;59.69;92898.63;4753809;30;20495;-77
2023/06/20 10:57:52;;;;;;;9.82;7.63;;;;;;;26.37;55.65;92902.72;4753399;30;20088;-78
2023/06/20 11:00:19;;;;;;;13.25;7.63;;;;;;;26.56;58.06;92899.00;4754051;30;20087;-78
2023/06/20 11:02:50;;;;;;;12.38;7.57;;;;;;;26.78;56.79;92905.22;4752268;30;20108;-77
2023/06/20 11:05:17;;;;;;;11.15;8.13;;;;;;;26.83;58.58;92901.41;4750124;30;20040;-77
2023/06/20 11:07:54;;;;;;;12.52;8.52;;;;;;;26.96;60.14;92898.00;4753637;30;20036;-78
2023/06/20 11:10:20;;;;;;;17.60;8.40;;;;;;;26.90;58.14;92896.81;4752535;30;20040;-78
2023/06/20 11:12:47;;;;;;;12.40;8.20;;;;;;;27.19;57.95;92896.91;4753683;30;20530;-77
2023/06/20 11:15:24;;;;;;;11.45;8.70;;;;;;;27.23;57.68;92902.34;4754758;30;20039;-78
2023/06/20 11:17:50;;;;;;;15.77;8.48;;;;;;;26.91;59.20;92893.00;4752396;30;20044;-77
2023/06/20 11:20:18;;;;;;;12.98;9.05;;;;;;;26.73;61.59;92884.88;4751735;30;20036;-78